Time;durP1;ratioP1;P1;durP2;ratioP2;P2;SDS_P1;SDS_P2;PMS_P1;PMS_P2;Temp;Humidity;BMP_temperature;BMP_pressure;BME280_temperature;BME280_humidity;BME280_pressure;Samples;Min_cycle;Max_cycle;Signal;HPM_P1;HPM_P2
2022/05/06 00:00:56;;;;;;;3.13;2.00;;;20.80;57.00;;;;;;5012349;28;20042;-56
2022/05/06 00:03:22;;;;;;;5.38;2.20;;;20.80;57.00;;;;;;5011975;28;20045;-57
2022/05/06 00:05:47;;;;;;;3.28;1.60;;;20.80;57.00;;;;;;5012208;28;20057;-56
2022/05/06 00:08:13;;;;;;;3.75;2.35;;;20.80;57.00;;;;;;5012785;28;20052;-57
2022/05/06 00:10:39;;;;;;;4.70;1.85;;;20.80;57.00;;;;;;5011282;28;20046;-57
2022/05/06 00:13:05;;;;;;;3.78;1.73;;;20.80;56.90;;;;;;5013191;28;20050;-57
2022/05/06 00:15:31;;;;;;;3.17;1.70;;;20.80;56.90;;;;;;5016328;28;20050;-57
2022/05/06 00:17:56;;;;;;;4.60;2.20;;;20.80;56.80;;;;;;5015430;28;20046;-56
2022/05/06 00:20:22;;;;;;;5.57;1.83;;;20.80;56.90;;;;;;5016287;28;20050;-56
2022/05/06 00:22:47;;;;;;;3.92;2.25;;;20.70;56.80;;;;;;5016230;28;20050;-57
2022/05/06 00:25:13;;;;;;;3.60;2.20;;;20.80;56.80;;;;;;5015560;28;20555;-56
2022/05/06 00:27:40;;;;;;;3.65;2.30;;;20.80;56.80;;;;;;5016028;28;20080;-56
2022/05/06 00:30:07;;;;;;;3.97;2.17;;;20.80;56.80;;;;;;5016230;28;20042;-56
2022/05/06 00:32:33;;;;;;;2.88;1.92;;;20.70;56.70;;;;;;5016077;28;20038;-56
2022/05/06 00:34:58;;;;;;;4.57;2.10;;;20.80;56.80;;;;;;5015749;28;20865;-57
2022/05/06 00:37:24;;;;;;;3.80;2.20;;;20.70;56.70;;;;;;5015030;28;20042;-57
2022/05/06 00:39:49;;;;;;;4.30;1.95;;;20.70;56.60;;;;;;5015742;28;20104;-57
2022/05/06 00:42:15;;;;;;;3.85;1.98;;;20.70;56.70;;;;;;5015940;28;20144;-57
2022/05/06 00:44:41;;;;;;;4.80;2.30;;;20.70;56.60;;;;;;5015156;28;20096;-56
2022/05/06 00:47:07;;;;;;;3.50;2.08;;;20.70;56.60;;;;;;5016056;28;20050;-57
2022/05/06 00:49:32;;;;;;;2.95;1.70;;;20.70;56.60;;;;;;5015438;28;20056;-57
2022/05/06 00:51:58;;;;;;;2.80;1.80;;;20.70;56.60;;;;;;5013533;28;20108;-57
2022/05/06 00:54:23;;;;;;;4.68;2.17;;;20.70;56.50;;;;;;5015675;28;20045;-57
2022/05/06 00:56:49;;;;;;;4.95;2.05;;;20.60;56.50;;;;;;5015439;28;20129;-57
2022/05/06 00:59:15;;;;;;;3.00;1.92;;;20.70;56.50;;;;;;5015165;28;20073;-57
2022/05/06 01:01:41;;;;;;;3.08;2.08;;;20.70;56.60;;;;;;5015361;28;20061;-57
2022/05/06 01:04:06;;;;;;;4.57;2.45;;;20.60;56.40;;;;;;5015085;28;20053;-57
2022/05/06 01:06:33;;;;;;;3.35;1.95;;;20.70;56.50;;;;;;5013795;28;20116;-57
2022/05/06 01:08:59;;;;;;;3.72;2.17;;;20.60;56.40;;;;;;5014241;28;20062;-57
2022/05/06 01:11:24;;;;;;;3.50;1.95;;;20.60;56.40;;;;;;5015438;28;20418;-57
2022/05/06 01:13:55;;;;;;;4.57;2.00;;;20.60;56.40;;;;;;5012967;28;20497;-57
2022/05/06 01:16:20;;;;;;;3.92;2.00;;;20.60;56.40;;;;;;5015339;28;20121;-56
2022/05/06 01:18:47;;;;;;;5.03;1.92;;;20.60;56.40;;;;;;5015044;28;20057;-57
2022/05/06 01:21:17;;;;;;;3.38;1.88;;;20.60;56.30;;;;;;5014663;28;20056;-57
2022/05/06 01:23:42;;;;;;;3.47;1.88;;;20.60;56.30;;;;;;5013643;28;20448;-57
2022/05/06 01:26:08;;;;;;;4.13;2.28;;;20.60;56.30;;;;;;5014005;28;20038;-57
2022/05/06 01:28:34;;;;;;;3.75;2.10;;;20.60;56.30;;;;;;5014676;28;20095;-57
2022/05/06 01:31:03;;;;;;;3.97;2.03;;;20.60;56.30;;;;;;5014930;28;20046;-57
2022/05/06 01:33:29;;;;;;;3.78;1.80;;;20.60;56.20;;;;;;5013299;28;20080;-57
2022/05/06 01:35:57;;;;;;;3.38;2.15;;;20.60;56.20;;;;;;5014644;28;20552;-57
2022/05/06 01:38:30;;;;;;;2.95;2.10;;;20.60;56.20;;;;;;5014856;28;20046;-57
2022/05/06 01:41:01;;;;;;;3.83;2.20;;;20.60;56.20;;;;;;4996732;28;20053;-56
2022/05/06 01:43:30;;;;;;;3.65;2.25;;;20.60;56.20;;;;;;5014904;28;20033;-56
2022/05/06 01:45:56;;;;;;;3.63;2.10;;;20.50;56.10;;;;;;5014411;28;20104;-56
2022/05/06 01:48:22;;;;;;;3.88;2.20;;;20.50;56.00;;;;;;5012922;28;20408;-56
2022/05/06 01:50:48;;;;;;;3.40;1.98;;;20.50;56.10;;;;;;5012777;28;20091;-56
2022/05/06 01:53:16;;;;;;;3.67;2.00;;;20.50;56.00;;;;;;5014814;28;20081;-56
2022/05/06 01:55:42;;;;;;;4.70;2.38;;;20.50;56.00;;;;;;5013317;28;20499;-56
2022/05/06 01:58:08;;;;;;;3.35;1.83;;;20.50;56.00;;;;;;5014343;28;20371;-56
2022/05/06 02:00:36;;;;;;;4.85;2.33;;;20.50;56.00;;;;;;5010507;28;20079;-56
2022/05/06 02:03:02;;;;;;;3.95;2.20;;;20.50;55.90;;;;;;4994076;28;20053;-56
2022/05/06 02:05:27;;;;;;;3.53;2.30;;;20.50;55.90;;;;;;4994486;28;20050;-56
2022/05/06 02:07:53;;;;;;;2.72;2.03;;;20.50;55.90;;;;;;4994425;28;20050;-57
2022/05/06 02:10:20;;;;;;;3.30;2.05;;;20.50;55.90;;;;;;4993733;28;20113;-56
2022/05/06 02:12:45;;;;;;;3.03;1.73;;;20.50;55.90;;;;;;4994039;28;20077;-56
2022/05/06 02:15:11;;;;;;;3.33;2.20;;;20.50;55.80;;;;;;4994885;28;20128;-56
2022/05/06 02:17:39;;;;;;;4.15;2.47;;;20.40;55.80;;;;;;4994141;28;20486;-56
2022/05/06 02:20:06;;;;;;;2.97;2.00;;;20.50;55.80;;;;;;4994054;28;20088;-57
2022/05/06 02:22:32;;;;;;;3.50;2.08;;;20.50;55.80;;;;;;4994701;28;20046;-57
2022/05/06 02:24:57;;;;;;;4.00;2.25;;;20.40;55.70;;;;;;4993208;28;20038;-57
2022/05/06 02:27:23;;;;;;;3.30;2.30;;;20.40;55.70;;;;;;4994491;28;20568;-57
2022/05/06 02:35:18;;;;;;;4.60;1.90;;;20.40;55.70;;;;;;4994172;28;20050;-57
2022/05/06 02:37:43;;;;;;;3.03;2.03;;;20.40;55.70;;;;;;4992604;28;20046;-57
2022/05/06 02:40:09;;;;;;;3.90;2.50;;;20.40;55.70;;;;;;4994355;28;20057;-57
2022/05/06 02:42:35;;;;;;;3.85;2.20;;;20.40;55.60;;;;;;4992589;28;20126;-57
2022/05/06 02:45:00;;;;;;;3.78;1.80;;;20.40;55.60;;;;;;4993307;28;20177;-57
2022/05/06 02:47:26;;;;;;;2.88;2.28;;;20.40;55.70;;;;;;4994149;28;20050;-57
2022/05/06 02:49:52;;;;;;;4.10;2.10;;;20.40;55.70;;;;;;4993425;28;20064;-57
2022/05/06 02:52:18;;;;;;;2.72;1.92;;;20.40;55.70;;;;;;4993105;28;20101;-57
2022/05/06 02:54:44;;;;;;;5.07;2.40;;;20.40;55.70;;;;;;4993424;28;20549;-57
2022/05/06 02:57:10;;;;;;;3.33;2.03;;;20.40;55.70;;;;;;4994050;28;20117;-57
2022/05/06 02:59:36;;;;;;;3.45;2.03;;;20.40;55.60;;;;;;4992928;28;20169;-57
2022/05/06 03:02:02;;;;;;;4.18;2.28;;;20.40;55.70;;;;;;4993667;28;20042;-57
2022/05/06 03:04:28;;;;;;;3.95;2.15;;;20.30;55.60;;;;;;4993853;28;20046;-57
2022/05/06 03:06:53;;;;;;;4.07;2.47;;;20.30;55.70;;;;;;4992796;28;20046;-56
2022/05/06 03:09:19;;;;;;;5.22;2.45;;;20.30;55.60;;;;;;4993810;28;20097;-56
2022/05/06 03:11:45;;;;;;;3.92;2.13;;;20.30;55.60;;;;;;4993188;28;20050;-56
2022/05/06 03:14:12;;;;;;;3.50;2.28;;;20.30;55.60;;;;;;4992872;28;20050;-56
2022/05/06 03:16:38;;;;;;;4.13;2.13;;;20.30;55.60;;;;;;4993647;28;20052;-56
2022/05/06 03:19:03;;;;;;;4.22;2.45;;;20.30;55.60;;;;;;4992685;28;20089;-56
2022/05/06 03:21:29;;;;;;;3.45;2.30;;;20.30;55.60;;;;;;4993390;28;20046;-56
2022/05/06 03:23:54;;;;;;;3.60;2.10;;;20.30;55.60;;;;;;4993264;28;20096;-56
2022/05/06 03:26:20;;;;;;;4.35;2.40;;;20.30;55.60;;;;;;5007911;28;20051;-57
2022/05/06 03:28:46;;;;;;;4.07;2.45;;;20.30;55.50;;;;;;4991766;28;20050;-57
2022/05/06 03:31:14;;;;;;;5.35;2.35;;;20.30;55.40;;;;;;4993273;28;20050;-57
2022/05/06 03:33:42;;;;;;;3.15;2.10;;;20.30;55.40;;;;;;4992270;28;20264;-57
2022/05/06 03:36:11;;;;;;;3.40;2.42;;;20.30;55.30;;;;;;4993314;28;20046;-57
2022/05/06 03:38:37;;;;;;;3.58;2.38;;;20.30;55.30;;;;;;4993550;28;20100;-56
2022/05/06 03:41:02;;;;;;;3.72;2.30;;;20.30;55.30;;;;;;4992168;28;20473;-56
2022/05/06 03:43:28;;;;;;;3.75;2.40;;;20.30;55.30;;;;;;4993473;28;20433;-56
2022/05/06 03:45:54;;;;;;;2.85;2.10;;;20.30;55.30;;;;;;4992975;28;20043;-56
2022/05/06 03:48:24;;;;;;;4.20;2.30;;;20.30;55.20;;;;;;4991852;28;20576;-56
2022/05/06 03:53:37;;;;;;;3.65;2.45;;;20.30;55.30;;;;;;4993025;28;20054;-57
2022/05/06 03:56:03;;;;;;;3.80;2.28;;;20.30;55.30;;;;;;5007323;28;20039;-57
2022/05/06 03:58:30;;;;;;;3.88;2.33;;;20.30;55.30;;;;;;4992930;28;20406;-56
2022/05/06 04:00:55;;;;;;;4.15;2.50;;;20.30;55.20;;;;;;4995004;28;20457;-56
2022/05/06 04:03:21;;;;;;;3.88;2.53;;;20.30;55.20;;;;;;5006212;28;20605;-57
2022/05/06 04:05:46;;;;;;;4.18;2.40;;;20.30;55.30;;;;;;5009862;28;20046;-57
2022/05/06 04:08:12;;;;;;;3.42;2.25;;;20.30;55.30;;;;;;5010532;28;20049;-57
2022/05/06 04:10:37;;;;;;;3.72;2.33;;;20.40;55.30;;;;;;5011709;28;20535;-57
2022/05/06 04:13:03;;;;;;;4.93;2.63;;;20.40;55.30;;;;;;5012096;28;20041;-57
2022/05/06 04:15:32;;;;;;;3.60;2.20;;;20.40;55.30;;;;;;5011966;28;20042;-56
2022/05/06 04:17:58;;;;;;;3.35;2.17;;;20.40;55.30;;;;;;5011947;28;20131;-56
2022/05/06 04:25:52;;;;;;;2.72;2.05;;;20.40;55.30;;;;;;5012045;28;20494;-57
2022/05/06 04:28:17;;;;;;;3.53;2.30;;;20.40;55.30;;;;;;5012243;28;20171;-56
2022/05/06 04:30:43;;;;;;;2.90;2.20;;;20.40;55.20;;;;;;5011601;28;20129;-57
2022/05/06 04:33:08;;;;;;;4.03;2.70;;;20.40;55.20;;;;;;5012170;28;20042;-56
2022/05/06 04:35:34;;;;;;;4.03;2.40;;;20.40;55.20;;;;;;5012331;28;20057;-56
2022/05/06 04:38:00;;;;;;;3.38;2.13;;;20.40;55.20;;;;;;5011312;28;20103;-57
2022/05/06 04:40:26;;;;;;;3.92;2.65;;;20.40;55.30;;;;;;5012327;28;20397;-57
2022/05/06 04:42:51;;;;;;;3.97;2.08;;;20.40;55.20;;;;;;5011671;28;20038;-57
2022/05/06 04:45:17;;;;;;;3.35;2.10;;;20.50;55.30;;;;;;5011683;28;20038;-56
2022/05/06 04:47:42;;;;;;;4.50;2.25;;;20.50;55.30;;;;;;5011905;28;20045;-57
2022/05/06 04:50:08;;;;;;;4.20;2.17;;;20.50;55.20;;;;;;5012260;28;20042;-57
2022/05/06 04:52:33;;;;;;;3.85;2.10;;;20.50;55.20;;;;;;5011602;28;20042;-57
2022/05/06 04:54:59;;;;;;;3.85;2.40;;;20.50;55.10;;;;;;5011499;28;20057;-57
2022/05/06 04:57:24;;;;;;;3.13;1.88;;;20.60;55.00;;;;;;5011063;28;20045;-57
2022/05/06 04:59:50;;;;;;;3.70;2.50;;;20.60;55.00;;;;;;5012875;28;20046;-57
2022/05/06 05:02:16;;;;;;;3.58;2.35;;;20.60;54.90;;;;;;5015494;28;20103;-56
2022/05/06 05:04:42;;;;;;;2.88;2.10;;;20.60;54.80;;;;;;5014550;28;20033;-56
2022/05/06 05:07:08;;;;;;;4.60;2.22;;;20.70;54.70;;;;;;5015727;28;20042;-56
2022/05/06 05:09:33;;;;;;;3.67;2.33;;;20.70;54.70;;;;;;5015343;28;20358;-56
2022/05/06 05:11:59;;;;;;;2.92;2.10;;;20.70;54.70;;;;;;5014069;28;20057;-56
2022/05/06 05:14:24;;;;;;;3.03;2.13;;;20.70;54.70;;;;;;5015548;28;20062;-56
2022/05/06 05:16:50;;;;;;;3.42;2.28;;;20.70;54.70;;;;;;5015252;28;20038;-56
2022/05/06 05:19:16;;;;;;;3.88;2.47;;;20.70;54.80;;;;;;5014453;28;20397;-56
2022/05/06 05:21:42;;;;;;;4.57;2.60;;;20.70;54.80;;;;;;5014799;28;20042;-56
2022/05/06 05:24:07;;;;;;;3.90;2.42;;;20.70;54.80;;;;;;5015288;28;20046;-56
2022/05/06 05:26:33;;;;;;;3.35;2.30;;;20.70;54.90;;;;;;5014410;28;20061;-56
2022/05/06 05:28:59;;;;;;;4.15;2.45;;;20.80;55.00;;;;;;5014346;28;20042;-56
2022/05/06 05:31:24;;;;;;;3.88;2.17;;;20.80;55.10;;;;;;5015235;28;20046;-57
2022/05/06 05:33:52;;;;;;;3.50;2.30;;;20.80;55.00;;;;;;5013759;28;20132;-56
2022/05/06 05:36:20;;;;;;;3.05;2.00;;;20.80;55.10;;;;;;5015151;28;20046;-57
2022/05/06 05:38:46;;;;;;;;;;;20.80;55.10;;;;;;5015241;28;20064;-57
2022/05/06 05:41:11;;;;;;;3.28;2.22;;;20.80;55.10;;;;;;5013859;28;20314;-57
2022/05/06 05:49:05;;;;;;;2.70;2.00;;;20.90;55.20;;;;;;5013300;28;20050;-57
2022/05/06 05:51:32;;;;;;;3.30;2.40;;;20.90;55.30;;;;;;5014360;28;20049;-57
2022/05/06 05:53:58;;;;;;;3.28;2.00;;;20.90;55.30;;;;;;5013125;28;20857;-56
2022/05/06 05:56:24;;;;;;;3.30;2.17;;;20.90;55.40;;;;;;5014662;28;20081;-56
2022/05/06 05:58:50;;;;;;;3.50;2.25;;;20.90;55.40;;;;;;5014482;28;20049;-56
2022/05/06 06:01:15;;;;;;;2.72;1.92;;;20.90;55.40;;;;;;5013336;28;20128;-57
2022/05/06 06:03:41;;;;;;;3.83;2.42;;;20.90;55.50;;;;;;5013520;28;20128;-56
2022/05/06 06:06:06;;;;;;;3.53;2.30;;;21.00;55.60;;;;;;5014193;28;20045;-56
2022/05/06 06:08:32;;;;;;;3.75;2.35;;;21.00;55.60;;;;;;5013256;28;20049;-57
2022/05/06 06:11:01;;;;;;;4.25;2.58;;;21.00;55.60;;;;;;5013166;28;20050;-56
2022/05/06 06:13:27;;;;;;;4.15;2.20;;;21.00;55.60;;;;;;5014522;28;20052;-56
2022/05/06 06:15:53;;;;;;;4.90;2.75;;;21.00;55.70;;;;;;5013060;28;20088;-56
2022/05/06 06:18:23;;;;;;;5.90;2.50;;;21.00;55.60;;;;;;5014237;28;20486;-56
2022/05/06 06:20:49;;;;;;;4.57;2.30;;;21.00;55.70;;;;;;5013886;28;20085;-56
2022/05/06 06:23:15;;;;;;;3.38;2.00;;;21.00;55.80;;;;;;5013393;28;20081;-56
2022/05/06 06:25:41;;;;;;;2.92;2.00;;;21.10;55.80;;;;;;5013545;28;20072;-56
2022/05/06 06:28:06;;;;;;;4.80;2.25;;;21.10;55.90;;;;;;5014258;28;20481;-57
2022/05/06 06:30:32;;;;;;;3.40;2.45;;;21.10;55.90;;;;;;5013475;28;20050;-56
2022/05/06 06:32:58;;;;;;;2.95;2.00;;;21.10;56.00;;;;;;5013428;28;20042;-56
2022/05/06 06:35:23;;;;;;;4.32;2.58;;;21.10;56.10;;;;;;5029280;28;20049;-56
2022/05/06 06:37:49;;;;;;;6.15;2.80;;;21.10;56.20;;;;;;5032391;28;20072;-57
2022/05/06 06:40:14;;;;;;;3.95;2.47;;;21.20;56.40;;;;;;5033347;28;20045;-57
2022/05/06 06:42:42;;;;;;;6.75;2.63;;;21.10;56.40;;;;;;5033344;28;20042;-57
2022/05/06 06:45:09;;;;;;;3.63;2.28;;;21.20;56.50;;;;;;5033022;28;20046;-57
2022/05/06 06:47:35;;;;;;;4.70;2.33;;;21.20;56.60;;;;;;5033343;28;20516;-57
2022/05/06 06:50:01;;;;;;;5.10;2.08;;;21.20;56.70;;;;;;5032381;28;20048;-57
2022/05/06 06:52:26;;;;;;;3.95;2.28;;;21.20;56.80;;;;;;5033441;28;20038;-57
2022/05/06 06:54:52;;;;;;;5.15;2.55;;;21.20;56.90;;;;;;5032647;28;20041;-57
2022/05/06 06:57:17;;;;;;;4.15;2.35;;;21.20;56.90;;;;;;5032791;28;20060;-57
2022/05/06 06:59:43;;;;;;;3.63;2.50;;;21.20;57.00;;;;;;5032956;28;20049;-56
2022/05/06 07:02:08;;;;;;;4.75;2.78;;;21.20;57.10;;;;;;5033301;28;20056;-57
2022/05/06 07:04:34;;;;;;;6.35;2.40;;;21.20;57.10;;;;;;5032364;28;20053;-57
2022/05/06 07:12:28;;;;;;;3.13;2.05;;;21.30;57.30;;;;;;5032155;28;20045;-57
2022/05/06 07:14:55;;;;;;;5.57;2.70;;;21.30;57.30;;;;;;5032683;28;20056;-57
2022/05/06 07:17:21;;;;;;;4.13;2.40;;;21.30;57.30;;;;;;5033015;28;20489;-57
2022/05/06 07:19:47;;;;;;;4.15;2.50;;;21.30;57.40;;;;;;5031575;28;20527;-56
2022/05/06 07:22:12;;;;;;;5.47;2.30;;;21.30;57.40;;;;;;5032919;28;20041;-56
2022/05/06 07:24:38;;;;;;;5.07;2.20;;;21.30;57.40;;;;;;5032886;28;20085;-56
2022/05/06 07:27:03;;;;;;;5.05;2.20;;;21.30;57.50;;;;;;5032144;28;20033;-56
2022/05/06 07:29:31;;;;;;;4.47;2.50;;;21.40;57.60;;;;;;5032664;28;20401;-56
2022/05/06 07:31:56;;;;;;;4.43;2.15;;;21.40;57.60;;;;;;5032217;28;20520;-56
2022/05/06 07:34:22;;;;;;;5.00;2.28;;;21.40;57.70;;;;;;5031763;28;20049;-57
2022/05/06 07:36:47;;;;;;;4.70;2.10;;;21.40;57.70;;;;;;5032291;28;20041;-57
2022/05/06 07:39:14;;;;;;;3.97;2.25;;;21.40;57.80;;;;;;5031751;28;20041;-56
2022/05/06 07:41:40;;;;;;;3.67;2.25;;;21.40;57.80;;;;;;5032078;28;20041;-56
2022/05/06 07:44:06;;;;;;;2.53;1.92;;;21.40;57.90;;;;;;5032736;28;20114;-57
2022/05/06 07:46:32;;;;;;;4.78;2.60;;;21.40;57.90;;;;;;5031948;28;20136;-57
2022/05/06 07:48:57;;;;;;;4.47;2.47;;;21.50;58.00;;;;;;5032413;28;20048;-57
2022/05/06 07:51:23;;;;;;;4.72;2.63;;;21.40;57.90;;;;;;5032686;28;20050;-57
2022/05/06 07:53:51;;;;;;;5.30;2.58;;;21.50;58.00;;;;;;5031281;28;20049;-57
2022/05/06 07:56:17;;;;;;;;;;;21.50;58.10;;;;;;5032622;28;20053;-57
2022/05/06 07:58:43;;;;;;;4.50;2.50;;;21.50;58.10;;;;;;5031845;28;19921;-57
2022/05/06 08:01:11;;;;;;;3.55;2.25;;;21.50;58.00;;;;;;5031770;28;20172;-57
2022/05/06 08:06:21;;;;;;;4.13;2.40;;;21.50;58.10;;;;;;5032377;28;20053;-56
2022/05/06 08:08:46;;;;;;;5.80;2.40;;;21.60;58.20;;;;;;5031613;28;20045;-57
2022/05/06 08:11:12;;;;;;;4.18;2.40;;;21.50;57.90;;;;;;5031929;28;20053;-56
2022/05/06 08:13:37;;;;;;;4.45;2.17;;;21.60;57.90;;;;;;5032334;28;20056;-56
2022/05/06 08:16:03;;;;;;;4.57;2.85;;;21.60;57.90;;;;;;5031338;28;20081;-57
2022/05/06 08:18:29;;;;;;;5.57;2.60;;;21.60;57.80;;;;;;5032410;28;20125;-57
2022/05/06 08:20:54;;;;;;;4.50;2.63;;;21.60;57.70;;;;;;5027899;28;20034;-56
2022/05/06 08:23:21;;;;;;;5.35;2.97;;;21.60;57.50;;;;;;5011402;28;20042;-60
2022/05/06 08:25:47;;;;;;;5.82;2.72;;;21.60;57.50;;;;;;5011643;28;20046;-57
2022/05/06 08:28:13;;;;;;;5.50;3.00;;;21.60;57.30;;;;;;5011855;28;20050;-56
2022/05/06 08:30:39;;;;;;;6.55;3.05;;;21.70;57.90;;;;;;5007748;28;20524;-58
2022/05/06 08:33:05;;;;;;;5.90;3.30;;;21.70;57.10;;;;;;5011748;28;20038;-56
2022/05/06 08:35:31;;;;;;;8.68;3.63;;;21.70;57.10;;;;;;5013767;28;20564;-57
2022/05/06 08:37:58;;;;;;;5.50;3.08;;;21.70;57.20;;;;;;5015938;28;20053;-57
2022/05/06 08:40:29;;;;;;;8.55;3.25;;;21.70;57.40;;;;;;5016105;28;20053;-57
2022/05/06 08:42:55;;;;;;;5.30;3.20;;;21.70;57.50;;;;;;5015130;28;20045;-57
2022/05/06 08:50:53;;;;;;;5.40;2.72;;;21.70;57.80;;;;;;5014906;28;20046;-57
2022/05/06 08:53:23;;;;;;;7.47;3.25;;;21.80;58.00;;;;;;5016022;28;20088;-56
2022/05/06 08:55:50;;;;;;;7.93;3.10;;;21.80;58.00;;;;;;5015238;28;20543;-56
2022/05/06 08:58:16;;;;;;;4.65;2.92;;;21.80;58.00;;;;;;5015158;28;20042;-57
2022/05/06 09:00:42;;;;;;;6.07;2.40;;;21.80;58.00;;;;;;5014958;28;20124;-57
2022/05/06 09:03:07;;;;;;;3.92;2.42;;;21.80;58.00;;;;;;5014339;28;20129;-57
2022/05/06 09:05:33;;;;;;;5.32;3.00;;;21.80;58.10;;;;;;5014973;28;20173;-57
2022/05/06 09:08:02;;;;;;;5.78;2.83;;;21.80;58.10;;;;;;5013859;28;20053;-57
2022/05/06 09:10:28;;;;;;;5.30;2.30;;;21.80;58.30;;;;;;5015570;28;20042;-57
2022/05/06 09:12:56;;;;;;;6.00;3.53;;;21.80;58.30;;;;;;5013030;28;20052;-57
2022/05/06 09:18:07;;;;;;;6.82;2.97;;;21.90;58.40;;;;;;5015069;28;20053;-57
2022/05/06 09:20:33;;;;;;;4.82;2.50;;;21.90;58.40;;;;;;5015089;28;20493;-56
2022/05/06 09:22:58;;;;;;;5.28;2.75;;;21.90;58.40;;;;;;5014810;28;20176;-58
2022/05/06 09:25:37;;;;;;;4.95;3.05;;;21.90;58.40;;;;;;5015072;28;20120;-57
2022/05/06 09:28:03;;;;;;;4.10;2.65;;;22.00;58.30;;;;;;5015100;28;20057;-57
2022/05/06 09:30:28;;;;;;;6.30;2.80;;;21.90;58.20;;;;;;5015181;28;20041;-57
2022/05/06 09:32:54;;;;;;;4.18;2.65;;;21.90;58.10;;;;;;5012947;28;20046;-57
2022/05/06 09:35:19;;;;;;;5.28;2.70;;;21.90;58.30;;;;;;5013815;28;20210;-57
2022/05/06 09:37:48;;;;;;;5.57;2.67;;;22.00;58.40;;;;;;5014870;28;20061;-57
2022/05/06 09:40:15;;;;;;;6.72;2.80;;;22.00;58.50;;;;;;5014356;28;20038;-57
2022/05/06 09:42:44;;;;;;;6.13;2.88;;;21.90;58.60;;;;;;5014521;28;20071;-57
2022/05/06 09:45:12;;;;;;;5.60;2.72;;;21.90;58.70;;;;;;5015160;28;20052;-57
2022/05/06 09:47:38;;;;;;;5.90;2.65;;;21.90;58.60;;;;;;5013174;28;20089;-57
2022/05/06 09:50:05;;;;;;;5.28;2.88;;;21.90;58.50;;;;;;5014788;28;20038;-57
2022/05/06 09:52:30;;;;;;;4.88;2.80;;;21.90;58.70;;;;;;5014842;28;20050;-59
2022/05/06 09:54:56;;;;;;;4.05;2.20;;;21.90;58.80;;;;;;5013815;28;20112;-57
2022/05/06 09:57:22;;;;;;;3.42;2.25;;;21.90;58.70;;;;;;5013565;28;20042;-57
2022/05/06 09:59:47;;;;;;;4.18;2.58;;;21.90;58.90;;;;;;5013933;28;20041;-59
2022/05/06 10:02:13;;;;;;;5.75;2.70;;;22.00;59.00;;;;;;5014378;28;20042;-56
2022/05/06 10:04:39;;;;;;;7.90;2.80;;;22.00;59.00;;;;;;5014335;28;20085;-57
2022/05/06 10:07:11;;;;;;;4.13;2.58;;;22.00;59.10;;;;;;5013652;28;20064;-57
2022/05/06 10:09:58;;;;;;;4.53;2.63;;;21.90;59.20;;;;;;5014202;28;20049;-56
2022/05/06 10:12:24;;;;;;;3.90;2.25;;;21.90;59.20;;;;;;5014268;28;20053;-57
2022/05/06 10:14:51;;;;;;;7.15;2.50;;;21.90;59.30;;;;;;5011737;28;20552;-57
2022/05/06 10:17:46;;;;;;;4.63;2.40;;;21.90;59.30;;;;;;5013072;28;20049;-57
2022/05/06 10:20:12;;;;;;;5.13;2.35;;;21.90;59.40;;;;;;5013779;28;20046;-57
2022/05/06 10:23:00;;;;;;;5.05;2.80;;;22.00;59.50;;;;;;5013467;28;20049;-57
2022/05/06 10:25:41;;;;;;;4.45;2.30;;;21.90;59.50;;;;;;5008347;28;20074;-57
2022/05/06 10:34:23;;;;;;;7.53;2.72;;;21.90;58.90;;;;;;5013677;28;20045;-56
2022/05/06 10:36:55;;;;;;;4.63;2.50;;;21.90;58.90;;;;;;5011524;28;20049;-57
2022/05/06 10:39:32;;;;;;;6.05;2.58;;;21.90;58.90;;;;;;5013374;28;20496;-56
2022/05/06 10:42:04;;;;;;;5.15;2.50;;;22.00;58.80;;;;;;5013512;28;20057;-56
2022/05/06 10:44:33;;;;;;;6.00;2.58;;;22.00;58.80;;;;;;5013397;28;20483;-57
2022/05/06 10:46:59;;;;;;;5.57;2.95;;;22.00;58.90;;;;;;5013518;28;20050;-56
2022/05/06 10:49:34;;;;;;;7.03;2.70;;;22.00;58.90;;;;;;5012504;28;20108;-56
2022/05/06 10:52:18;;;;;;;6.15;2.67;;;22.00;58.90;;;;;;5009202;28;20101;-57
2022/05/06 10:54:54;;;;;;;4.68;2.78;;;22.00;58.90;;;;;;5012229;28;20489;-57
2022/05/06 10:57:20;;;;;;;4.15;2.45;;;22.00;59.00;;;;;;5012174;28;20481;-56
2022/05/06 10:59:56;;;;;;;8.20;2.83;;;22.00;59.00;;;;;;5012961;28;20125;-59
2022/05/06 11:02:22;;;;;;;6.88;2.78;;;22.00;59.00;;;;;;5013353;28;20405;-67
2022/05/06 11:04:51;;;;;;;5.97;3.20;;;22.00;58.90;;;;;;5012376;28;20497;-59
2022/05/06 11:07:19;;;;;;;5.15;2.85;;;22.00;58.80;;;;;;5013147;28;20092;-57
2022/05/06 11:09:45;;;;;;;6.18;3.13;;;22.00;58.90;;;;;;5008556;28;20069;-56
2022/05/06 11:12:12;;;;;;;5.47;2.60;;;22.10;59.00;;;;;;4998267;28;20050;-56
2022/05/06 11:14:37;;;;;;;7.10;2.88;;;22.00;58.90;;;;;;4993857;28;20417;-56
2022/05/06 11:17:16;;;;;;;3.83;2.72;;;22.10;59.00;;;;;;4995428;28;20042;-57
2022/05/06 11:19:41;;;;;;;8.35;4.53;;;22.10;58.90;;;;;;5007152;28;20421;-57
2022/05/06 11:22:07;;;;;;;11.35;4.95;;;22.10;58.90;;;;;;5011453;28;20042;-57
2022/05/06 11:24:33;;;;;;;10.55;4.90;;;22.10;58.90;;;;;;5011844;28;20041;-60
2022/05/06 11:27:18;;;;;;;12.45;5.07;;;22.10;58.90;;;;;;5012693;28;20065;-58
2022/05/06 11:29:51;;;;;;;14.20;5.85;;;22.10;58.90;;;;;;5012750;28;20104;-57
2022/05/06 11:32:16;;;;;;;14.10;5.80;;;22.10;58.70;;;;;;5012147;28;20081;-57
2022/05/06 11:34:47;;;;;;;12.85;5.05;;;22.10;58.70;;;;;;5012380;28;20077;-57
2022/05/06 11:37:33;;;;;;;13.10;6.03;;;22.10;58.70;;;;;;5012915;28;20045;-57
2022/05/06 11:42:43;;;;;;;13.18;5.03;;;22.10;58.70;;;;;;5012604;28;20049;-57
2022/05/06 11:48:13;;;;;;;15.52;6.13;;;22.10;58.70;;;;;;5011565;28;20054;-59
2022/05/06 11:50:40;;;;;;;13.70;5.97;;;22.20;58.90;;;;;;5012320;28;20050;-57
2022/05/06 11:53:07;;;;;;;15.85;5.30;;;22.10;58.80;;;;;;5011675;28;20042;-57
2022/05/06 11:55:32;;;;;;;11.35;5.03;;;22.20;58.80;;;;;;5012793;28;20486;-57
2022/05/06 11:57:58;;;;;;;12.25;5.40;;;22.20;58.70;;;;;;5012521;28;20060;-57
2022/05/06 12:00:24;;;;;;;11.98;5.20;;;22.20;58.70;;;;;;5010410;28;20054;-57
2022/05/06 12:02:51;;;;;;;10.30;4.85;;;22.20;58.60;;;;;;5010956;28;20139;-58
2022/05/06 12:05:16;;;;;;;10.13;4.43;;;22.20;58.50;;;;;;5012559;28;20494;-58
2022/05/06 12:07:46;;;;;;;10.43;4.90;;;22.20;58.40;;;;;;5011533;28;20057;-58
2022/05/06 12:10:29;;;;;;;10.90;4.63;;;22.20;58.40;;;;;;5014588;28;20584;-57
2022/05/06 12:12:58;;;;;;;12.13;5.20;;;22.20;58.30;;;;;;5016058;28;20057;-58
2022/05/06 12:15:30;;;;;;;13.50;4.97;;;22.20;58.40;;;;;;5015829;28;20053;-57
2022/05/06 12:18:09;;;;;;;14.55;4.95;;;22.20;58.30;;;;;;5016506;28;20092;-58
2022/05/06 12:20:42;;;;;;;13.30;4.72;;;22.20;58.30;;;;;;5015643;28;20136;-57
2022/05/06 12:23:09;;;;;;;9.13;4.40;;;22.20;58.30;;;;;;5016411;28;20034;-57
2022/05/06 12:25:35;;;;;;;11.40;4.63;;;22.20;58.30;;;;;;5016334;28;20512;-57
2022/05/06 12:28:07;;;;;;;13.48;4.90;;;22.20;58.20;;;;;;5015500;28;20056;-57
2022/05/06 12:30:34;;;;;;;11.38;4.95;;;22.20;58.10;;;;;;5016291;28;20046;-57
2022/05/06 12:33:14;;;;;;;9.00;4.20;;;22.20;58.20;;;;;;5015966;28;20560;-57
2022/05/06 12:36:04;;;;;;;8.85;4.47;;;22.20;58.00;;;;;;5014928;28;20444;-57
2022/05/06 12:38:36;;;;;;;9.18;4.47;;;22.20;58.00;;;;;;5016107;28;20056;-57
2022/05/06 12:41:15;;;;;;;10.25;4.32;;;22.20;58.00;;;;;;5015720;28;20052;-57
2022/05/06 12:43:40;;;;;;;10.88;4.43;;;22.20;57.90;;;;;;5014225;28;20048;-57
2022/05/06 12:46:06;;;;;;;9.45;3.85;;;22.20;58.00;;;;;;5014946;28;20049;-57
2022/05/06 12:51:15;;;;;;;9.48;4.00;;;22.20;57.80;;;;;;5016110;28;20046;-57
2022/05/06 12:53:41;;;;;;;8.93;3.85;;;22.30;57.80;;;;;;5015542;28;20046;-57
2022/05/06 12:56:16;;;;;;;9.10;3.95;;;22.20;57.80;;;;;;5015225;28;20038;-57
2022/05/06 12:58:42;;;;;;;9.63;4.45;;;22.30;57.80;;;;;;5014254;28;20116;-57
2022/05/06 13:01:07;;;;;;;9.38;4.07;;;22.30;57.70;;;;;;5015857;28;20133;-58
2022/05/06 13:03:33;;;;;;;9.80;3.67;;;22.30;57.70;;;;;;5015085;28;20404;-57
2022/05/06 13:05:58;;;;;;;9.77;4.47;;;22.30;57.70;;;;;;5015462;28;20057;-57
2022/05/06 13:08:24;;;;;;;6.03;3.50;;;22.30;57.60;;;;;;5015472;28;20046;-57
2022/05/06 13:10:50;;;;;;;8.40;3.47;;;22.30;57.50;;;;;;5014185;28;20513;-57
2022/05/06 13:13:16;;;;;;;9.63;3.72;;;22.30;57.50;;;;;;5015474;28;20081;-57
2022/05/06 13:15:42;;;;;;;6.75;3.13;;;22.40;58.10;;;;;;5015352;28;20060;-57
2022/05/06 13:18:08;;;;;;;9.75;4.15;;;22.40;57.40;;;;;;5015019;28;20041;-57
2022/05/06 13:20:33;;;;;;;8.15;3.60;;;22.40;57.40;;;;;;5015134;28;20093;-57
2022/05/06 13:22:59;;;;;;;9.23;3.35;;;22.40;57.30;;;;;;5015178;28;20097;-57
2022/05/06 13:25:24;;;;;;;6.68;3.35;;;22.40;57.20;;;;;;5014711;28;20046;-57
2022/05/06 13:27:50;;;;;;;8.30;3.80;;;22.50;57.20;;;;;;5014780;28;20394;-57
2022/05/06 13:30:15;;;;;;;8.32;3.90;;;22.50;57.10;;;;;;5014972;28;20065;-57
2022/05/06 13:32:41;;;;;;;9.10;3.80;;;22.50;57.00;;;;;;5014224;28;20401;-57
2022/05/06 13:35:08;;;;;;;6.47;3.00;;;22.60;57.00;;;;;;5014782;28;20050;-57